Wailuku, HI (96793)

02:05 AM HST die 21o September, anno 2014 (GMT -1000)
Kehalani | Change Station
CLOSE
Current Station
Personal Weather Stations
Location: Wailuku, HI
Elevation: 358 ft
Nearby Weather Stations

Elev 358 ft 20.87 °N, 156.50 °W | Updated 3 minutes ago

Clear
Serena
75.4 °F
Feels Like 75 °F
N
2.2
Ventus Variabilis Ventus from Magis Aquilo quam Zephyrus

Hodie
High -- | Low -- °F
--% Chance of Precip.
Yesterday
High -- | Low -- °F
Precip. -- in
6:14 AM 6:23 PM
Waning Crescent, 7% visible
Pressio 29.96 in
Visibilitas 10.0 milia passuum
Clouds Serena
Index Caloris 75 °F
Frigus in quo Ros apparet 71 °F
Umor 86%
Rainfall 0.00 in
Snow Depth Not available.
UV 0 out of 12
Pollen Not available.
Air Quality Not available.
Flu Activity Not available.
METAR PHOG 211154Z AUTO 15004KT 10SM CLR 24/22 A2994 RMK AO2 SLP143 T02390217 10278 20239 58011 TSNO $

More Conditions Fewer Conditions

Pressio 29.96 in
Visibilitas 10.0 milia passuum
Clouds Serena
Index Caloris 75 °F
Frigus in quo Ros apparet 71 °F
Umor 86%
Rainfall 0.00 in
Snow Depth Not available.
UV 0 out of 12
Pollen Not available.
Air Quality Not available.
Flu Activity Not available.
METAR PHOG 211154Z AUTO 15004KT 10SM CLR 24/22 A2994 RMK AO2 SLP143 T02390217 10278 20239 58011 TSNO $

More Conditions Fewer Conditions

10-Day Weather Forecast

Almanac

Astronomy

Sep. 21, 2014 Rise Set
Actual Time 6:14 AM HST 6:23 PM HST
Civil Twilight 5:52 AM HST 6:45 PM HST
Nautical Twilight 5:26 AM HST 7:10 PM HST
Astronomical Twilight 5:00 AM HST 7:36 PM HST
Moon 4:11 AM HST 4:55 PM HST
Length Of Visible Light 12h 52m
Length of Day
12h 08m
Tomorrow will be 1m 11s shorter.
Waning Crescent, 7% of the Moon is Illuminated
Hodie
Waning Crescent
Sep 24
New
Oct 1
First Quarter
Oct 8
Full
Oct 15
Last Quarter

Today's Extremes

State Highs State Lows

Community

WunderPhotos

Upload Photos

1,755,126 photos uploaded!

Nearby

Snow Depth

Station Depth Elevation
No new snow has been reported.

Earthquake Activity

City Distance Mag. Time & Date
No recent earthquake activity has been reported nearby.
Minimum magnitude displayed is 2.5.

Coastal Water Temperatures

Locus Calor
No Stations Reporting

Nearby Weather Stations